sensor_id;sensor_type;location;lat;lon;timestamp;P1;durP1;ratioP1;P2;durP2;ratioP2
22282;SDS011;11310;51.528;21.204;2023-03-01T00:02:04;84.55;;;34.90;;
22282;SDS011;11310;51.528;21.204;2023-03-01T00:04:34;91.15;;;34.42;;
22282;SDS011;11310;51.528;21.204;2023-03-01T00:07:04;98.90;;;37.63;;
22282;SDS011;11310;51.528;21.204;2023-03-01T00:09:33;88.35;;;34.83;;
22282;SDS011;11310;51.528;21.204;2023-03-01T00:12:03;85.28;;;34.45;;
22282;SDS011;11310;51.528;21.204;2023-03-01T00:14:33;101.70;;;36.45;;
22282;SDS011;11310;51.528;21.204;2023-03-01T00:17:01;86.40;;;34.45;;
22282;SDS011;11310;51.528;21.204;2023-03-01T00:19:32;82.03;;;34.17;;
22282;SDS011;11310;51.528;21.204;2023-03-01T00:22:01;95.30;;;34.28;;
22282;SDS011;11310;51.528;21.204;2023-03-01T00:24:32;91.80;;;34.40;;
22282;SDS011;11310;51.528;21.204;2023-03-01T00:27:00;95.82;;;34.72;;
22282;SDS011;11310;51.528;21.204;2023-03-01T00:29:28;93.55;;;35.55;;
22282;SDS011;11310;51.528;21.204;2023-03-01T00:31:58;92.20;;;35.00;;
22282;SDS011;11310;51.528;21.204;2023-03-01T00:34:27;102.40;;;37.13;;
22282;SDS011;11310;51.528;21.204;2023-03-01T00:36:56;98.72;;;36.78;;
22282;SDS011;11310;51.528;21.204;2023-03-01T00:39:33;93.95;;;37.10;;
22282;SDS011;11310;51.528;21.204;2023-03-01T00:42:02;101.03;;;38.85;;
22282;SDS011;11310;51.528;21.204;2023-03-01T00:44:31;98.15;;;36.92;;
22282;SDS011;11310;51.528;21.204;2023-03-01T00:47:01;88.95;;;34.15;;
22282;SDS011;11310;51.528;21.204;2023-03-01T00:49:31;94.95;;;34.50;;
22282;SDS011;11310;51.528;21.204;2023-03-01T00:52:00;84.35;;;33.30;;
22282;SDS011;11310;51.528;21.204;2023-03-01T00:54:29;81.85;;;34.47;;
22282;SDS011;11310;51.528;21.204;2023-03-01T00:56:59;89.40;;;35.80;;
22282;SDS011;11310;51.528;21.204;2023-03-01T00:59:28;98.95;;;37.13;;
22282;SDS011;11310;51.528;21.204;2023-03-01T01:01:56;93.40;;;35.35;;
22282;SDS011;11310;51.528;21.204;2023-03-01T01:04:25;93.60;;;35.10;;
22282;SDS011;11310;51.528;21.204;2023-03-01T01:06:54;95.80;;;36.13;;
22282;SDS011;11310;51.528;21.204;2023-03-01T01:09:24;97.85;;;36.42;;
22282;SDS011;11310;51.528;21.204;2023-03-01T01:11:52;95.68;;;35.40;;
22282;SDS011;11310;51.528;21.204;2023-03-01T01:14:22;91.72;;;34.13;;
22282;SDS011;11310;51.528;21.204;2023-03-01T01:16:51;94.78;;;35.20;;
22282;SDS011;11310;51.528;21.204;2023-03-01T01:19:20;93.65;;;36.92;;
22282;SDS011;11310;51.528;21.204;2023-03-01T01:21:48;92.75;;;37.22;;
22282;SDS011;11310;51.528;21.204;2023-03-01T01:24:18;100.47;;;36.90;;
22282;SDS011;11310;51.528;21.204;2023-03-01T01:26:47;85.93;;;34.17;;
22282;SDS011;11310;51.528;21.204;2023-03-01T01:29:16;78.43;;;33.20;;
22282;SDS011;11310;51.528;21.204;2023-03-01T01:31:46;111.50;;;38.53;;
22282;SDS011;11310;51.528;21.204;2023-03-01T01:34:18;110.55;;;37.35;;
22282;SDS011;11310;51.528;21.204;2023-03-01T01:36:48;112.00;;;39.38;;
22282;SDS011;11310;51.528;21.204;2023-03-01T01:39:17;105.93;;;37.05;;
22282;SDS011;11310;51.528;21.204;2023-03-01T01:41:46;97.47;;;35.00;;
22282;SDS011;11310;51.528;21.204;2023-03-01T01:44:16;95.30;;;36.88;;
22282;SDS011;11310;51.528;21.204;2023-03-01T01:46:48;105.30;;;35.95;;
22282;SDS011;11310;51.528;21.204;2023-03-01T01:49:23;107.20;;;36.90;;
22282;SDS011;11310;51.528;21.204;2023-03-01T01:51:58;95.32;;;35.97;;
22282;SDS011;11310;51.528;21.204;2023-03-01T01:54:35;108.63;;;36.75;;
22282;SDS011;11310;51.528;21.204;2023-03-01T01:57:10;95.60;;;36.40;;
22282;SDS011;11310;51.528;21.204;2023-03-01T01:59:43;113.57;;;37.63;;
22282;SDS011;11310;51.528;21.204;2023-03-01T02:02:19;101.30;;;37.35;;
22282;SDS011;11310;51.528;21.204;2023-03-01T02:04:49;99.07;;;35.05;;
22282;SDS011;11310;51.528;21.204;2023-03-01T02:07:26;99.75;;;36.08;;
22282;SDS011;11310;51.528;21.204;2023-03-01T02:09:55;97.90;;;36.90;;
22282;SDS011;11310;51.528;21.204;2023-03-01T02:12:25;104.10;;;37.15;;
22282;SDS011;11310;51.528;21.204;2023-03-01T02:14:54;100.15;;;36.65;;
22282;SDS011;11310;51.528;21.204;2023-03-01T02:17:24;102.07;;;36.85;;
22282;SDS011;11310;51.528;21.204;2023-03-01T02:19:57;108.38;;;39.78;;
22282;SDS011;11310;51.528;21.204;2023-03-01T02:22:37;101.78;;;39.20;;
22282;SDS011;11310;51.528;21.204;2023-03-01T02:25:11;103.68;;;37.85;;
22282;SDS011;11310;51.528;21.204;2023-03-01T02:27:49;104.72;;;43.17;;
22282;SDS011;11310;51.528;21.204;2023-03-01T02:30:27;93.95;;;36.65;;
22282;SDS011;11310;51.528;21.204;2023-03-01T02:35:31;77.40;;;31.05;;
22282;SDS011;11310;51.528;21.204;2023-03-01T02:38:03;93.97;;;37.20;;
22282;SDS011;11310;51.528;21.204;2023-03-01T02:40:38;97.63;;;36.25;;
22282;SDS011;11310;51.528;21.204;2023-03-01T02:43:09;87.10;;;34.10;;
22282;SDS011;11310;51.528;21.204;2023-03-01T02:45:47;109.97;;;37.58;;
22282;SDS011;11310;51.528;21.204;2023-03-01T02:48:16;93.70;;;34.28;;
22282;SDS011;11310;51.528;21.204;2023-03-01T02:50:52;91.45;;;34.50;;
22282;SDS011;11310;51.528;21.204;2023-03-01T02:53:34;84.55;;;32.38;;
22282;SDS011;11310;51.528;21.204;2023-03-01T02:56:07;93.80;;;34.20;;
22282;SDS011;11310;51.528;21.204;2023-03-01T02:58:40;87.10;;;31.05;;
22282;SDS011;11310;51.528;21.204;2023-03-01T03:01:16;74.88;;;30.02;;
22282;SDS011;11310;51.528;21.204;2023-03-01T03:03:45;75.05;;;29.50;;
22282;SDS011;11310;51.528;21.204;2023-03-01T03:06:14;83.32;;;32.70;;
22282;SDS011;11310;51.528;21.204;2023-03-01T03:08:43;77.95;;;30.48;;
22282;SDS011;11310;51.528;21.204;2023-03-01T03:11:11;77.40;;;30.80;;
22282;SDS011;11310;51.528;21.204;2023-03-01T03:13:40;70.10;;;29.25;;
22282;SDS011;11310;51.528;21.204;2023-03-01T03:16:17;83.78;;;29.52;;
22282;SDS011;11310;51.528;21.204;2023-03-01T03:18:46;88.55;;;31.35;;
22282;SDS011;11310;51.528;21.204;2023-03-01T03:21:15;84.45;;;30.13;;
22282;SDS011;11310;51.528;21.204;2023-03-01T03:23:44;70.70;;;27.20;;
22282;SDS011;11310;51.528;21.204;2023-03-01T03:26:12;74.38;;;28.83;;
22282;SDS011;11310;51.528;21.204;2023-03-01T03:28:42;72.32;;;30.48;;
22282;SDS011;11310;51.528;21.204;2023-03-01T03:31:11;79.88;;;29.95;;
22282;SDS011;11310;51.528;21.204;2023-03-01T03:33:42;76.20;;;28.95;;
22282;SDS011;11310;51.528;21.204;2023-03-01T03:36:14;81.57;;;27.48;;
22282;SDS011;11310;51.528;21.204;2023-03-01T03:38:44;81.90;;;29.90;;
22282;SDS011;11310;51.528;21.204;2023-03-01T03:41:13;75.95;;;29.90;;
22282;SDS011;11310;51.528;21.204;2023-03-01T03:43:43;68.13;;;27.77;;
22282;SDS011;11310;51.528;21.204;2023-03-01T03:46:12;69.75;;;28.08;;
22282;SDS011;11310;51.528;21.204;2023-03-01T03:48:43;69.80;;;28.08;;
22282;SDS011;11310;51.528;21.204;2023-03-01T03:51:13;63.40;;;25.48;;
22282;SDS011;11310;51.528;21.204;2023-03-01T03:53:43;71.03;;;26.85;;
22282;SDS011;11310;51.528;21.204;2023-03-01T03:56:13;69.18;;;27.35;;
22282;SDS011;11310;51.528;21.204;2023-03-01T03:58:42;69.60;;;26.08;;
22282;SDS011;11310;51.528;21.204;2023-03-01T04:01:11;72.68;;;27.85;;
22282;SDS011;11310;51.528;21.204;2023-03-01T04:03:40;60.45;;;24.88;;
22282;SDS011;11310;51.528;21.204;2023-03-01T04:06:15;74.00;;;26.88;;
22282;SDS011;11310;51.528;21.204;2023-03-01T04:08:43;70.60;;;27.58;;
22282;SDS011;11310;51.528;21.204;2023-03-01T04:11:12;70.75;;;27.70;;
22282;SDS011;11310;51.528;21.204;2023-03-01T04:13:57;73.22;;;28.60;;
22282;SDS011;11310;51.528;21.204;2023-03-01T04:16:27;65.05;;;27.45;;
22282;SDS011;11310;51.528;21.204;2023-03-01T04:18:56;67.22;;;26.55;;
22282;SDS011;11310;51.528;21.204;2023-03-01T04:21:28;60.63;;;24.48;;
22282;SDS011;11310;51.528;21.204;2023-03-01T04:23:56;68.53;;;26.58;;
22282;SDS011;11310;51.528;21.204;2023-03-01T04:26:25;69.80;;;27.23;;
22282;SDS011;11310;51.528;21.204;2023-03-01T04:28:55;60.65;;;25.08;;
22282;SDS011;11310;51.528;21.204;2023-03-01T04:31:23;58.80;;;24.65;;
22282;SDS011;11310;51.528;21.204;2023-03-01T04:33:53;70.63;;;26.48;;
22282;SDS011;11310;51.528;21.204;2023-03-01T04:36:23;61.83;;;23.67;;
22282;SDS011;11310;51.528;21.204;2023-03-01T04:38:55;59.05;;;21.77;;
22282;SDS011;11310;51.528;21.204;2023-03-01T04:41:24;57.60;;;22.83;;
22282;SDS011;11310;51.528;21.204;2023-03-01T04:43:53;58.45;;;23.17;;
22282;SDS011;11310;51.528;21.204;2023-03-01T04:46:21;58.28;;;25.25;;
22282;SDS011;11310;51.528;21.204;2023-03-01T04:48:50;53.63;;;22.80;;
22282;SDS011;11310;51.528;21.204;2023-03-01T04:51:19;57.28;;;22.92;;
22282;SDS011;11310;51.528;21.204;2023-03-01T04:53:47;55.15;;;22.40;;
22282;SDS011;11310;51.528;21.204;2023-03-01T04:56:17;63.38;;;24.25;;
22282;SDS011;11310;51.528;21.204;2023-03-01T04:58:46;46.35;;;21.20;;
22282;SDS011;11310;51.528;21.204;2023-03-01T05:01:16;60.90;;;21.27;;
22282;SDS011;11310;51.528;21.204;2023-03-01T05:03:47;53.03;;;22.42;;
22282;SDS011;11310;51.528;21.204;2023-03-01T05:06:17;54.70;;;23.67;;
22282;SDS011;11310;51.528;21.204;2023-03-01T05:08:47;56.35;;;21.98;;
22282;SDS011;11310;51.528;21.204;2023-03-01T05:11:16;60.95;;;21.40;;
22282;SDS011;11310;51.528;21.204;2023-03-01T05:13:46;52.08;;;21.70;;
22282;SDS011;11310;51.528;21.204;2023-03-01T05:16:17;52.47;;;22.00;;
22282;SDS011;11310;51.528;21.204;2023-03-01T05:18:46;52.72;;;21.45;;
22282;SDS011;11310;51.528;21.204;2023-03-01T05:21:17;54.65;;;21.48;;
22282;SDS011;11310;51.528;21.204;2023-03-01T05:23:45;54.05;;;22.05;;
22282;SDS011;11310;51.528;21.204;2023-03-01T05:26:14;60.60;;;22.77;;
22282;SDS011;11310;51.528;21.204;2023-03-01T05:29:00;56.65;;;21.48;;
22282;SDS011;11310;51.528;21.204;2023-03-01T05:31:29;58.33;;;22.00;;
22282;SDS011;11310;51.528;21.204;2023-03-01T05:33:58;55.50;;;23.13;;
22282;SDS011;11310;51.528;21.204;2023-03-01T05:36:27;59.78;;;23.42;;
22282;SDS011;11310;51.528;21.204;2023-03-01T05:38:56;49.50;;;23.13;;
22282;SDS011;11310;51.528;21.204;2023-03-01T05:41:25;54.33;;;22.33;;
22282;SDS011;11310;51.528;21.204;2023-03-01T05:43:53;52.90;;;20.95;;
22282;SDS011;11310;51.528;21.204;2023-03-01T05:46:23;54.25;;;22.92;;
22282;SDS011;11310;51.528;21.204;2023-03-01T05:48:52;54.47;;;21.33;;
22282;SDS011;11310;51.528;21.204;2023-03-01T05:51:20;52.15;;;21.83;;
22282;SDS011;11310;51.528;21.204;2023-03-01T05:53:50;46.00;;;21.42;;
22282;SDS011;11310;51.528;21.204;2023-03-01T05:56:18;50.13;;;22.25;;
22282;SDS011;11310;51.528;21.204;2023-03-01T05:58:49;50.78;;;22.50;;
22282;SDS011;11310;51.528;21.204;2023-03-01T06:01:17;56.33;;;23.33;;
22282;SDS011;11310;51.528;21.204;2023-03-01T06:03:48;50.30;;;22.05;;
22282;SDS011;11310;51.528;21.204;2023-03-01T06:06:16;56.58;;;23.02;;
22282;SDS011;11310;51.528;21.204;2023-03-01T06:08:45;55.40;;;23.10;;
22282;SDS011;11310;51.528;21.204;2023-03-01T06:11:14;53.63;;;22.73;;
22282;SDS011;11310;51.528;21.204;2023-03-01T06:13:42;57.30;;;24.65;;
22282;SDS011;11310;51.528;21.204;2023-03-01T06:16:11;49.80;;;23.17;;
22282;SDS011;11310;51.528;21.204;2023-03-01T06:18:41;49.72;;;22.38;;
22282;SDS011;11310;51.528;21.204;2023-03-01T06:21:11;55.65;;;23.60;;
22282;SDS011;11310;51.528;21.204;2023-03-01T06:23:41;59.10;;;24.15;;
22282;SDS011;11310;51.528;21.204;2023-03-01T06:26:09;57.13;;;26.88;;
22282;SDS011;11310;51.528;21.204;2023-03-01T06:28:38;48.75;;;24.33;;
22282;SDS011;11310;51.528;21.204;2023-03-01T06:31:06;65.45;;;27.73;;
22282;SDS011;11310;51.528;21.204;2023-03-01T06:33:36;59.97;;;25.42;;
22282;SDS011;11310;51.528;21.204;2023-03-01T06:36:05;55.67;;;26.20;;
22282;SDS011;11310;51.528;21.204;2023-03-01T06:38:37;61.15;;;27.20;;
22282;SDS011;11310;51.528;21.204;2023-03-01T06:41:07;58.40;;;27.08;;
22282;SDS011;11310;51.528;21.204;2023-03-01T06:43:36;59.75;;;28.38;;
22282;SDS011;11310;51.528;21.204;2023-03-01T06:46:04;62.25;;;27.58;;
22282;SDS011;11310;51.528;21.204;2023-03-01T06:48:34;58.15;;;27.15;;
22282;SDS011;11310;51.528;21.204;2023-03-01T06:51:03;61.47;;;26.30;;
22282;SDS011;11310;51.528;21.204;2023-03-01T06:53:31;59.28;;;26.30;;
22282;SDS011;11310;51.528;21.204;2023-03-01T06:56:01;66.75;;;28.88;;
22282;SDS011;11310;51.528;21.204;2023-03-01T06:58:30;58.72;;;26.80;;
22282;SDS011;11310;51.528;21.204;2023-03-01T07:01:00;58.47;;;29.45;;
22282;SDS011;11310;51.528;21.204;2023-03-01T07:03:33;56.58;;;24.40;;
22282;SDS011;11310;51.528;21.204;2023-03-01T07:06:02;61.67;;;27.70;;
22282;SDS011;11310;51.528;21.204;2023-03-01T07:08:30;54.72;;;23.48;;
22282;SDS011;11310;51.528;21.204;2023-03-01T07:10:59;50.50;;;24.30;;
22282;SDS011;11310;51.528;21.204;2023-03-01T07:13:30;52.30;;;24.67;;
22282;SDS011;11310;51.528;21.204;2023-03-01T07:15:59;48.35;;;24.58;;
22282;SDS011;11310;51.528;21.204;2023-03-01T07:18:28;59.30;;;25.13;;
22282;SDS011;11310;51.528;21.204;2023-03-01T07:20:56;50.95;;;23.73;;
22282;SDS011;11310;51.528;21.204;2023-03-01T07:23:25;49.55;;;25.05;;
22282;SDS011;11310;51.528;21.204;2023-03-01T07:25:54;47.20;;;22.70;;
22282;SDS011;11310;51.528;21.204;2023-03-01T07:28:23;52.88;;;24.85;;
22282;SDS011;11310;51.528;21.204;2023-03-01T07:30:54;48.85;;;20.70;;
22282;SDS011;11310;51.528;21.204;2023-03-01T07:33:23;53.08;;;25.00;;
22282;SDS011;11310;51.528;21.204;2023-03-01T07:35:55;53.33;;;24.45;;
22282;SDS011;11310;51.528;21.204;2023-03-01T07:38:25;49.33;;;24.02;;
22282;SDS011;11310;51.528;21.204;2023-03-01T07:40:54;50.83;;;22.35;;
22282;SDS011;11310;51.528;21.204;2023-03-01T07:43:26;46.53;;;21.02;;
22282;SDS011;11310;51.528;21.204;2023-03-01T07:45:59;44.40;;;20.70;;
22282;SDS011;11310;51.528;21.204;2023-03-01T07:48:28;49.90;;;21.90;;
22282;SDS011;11310;51.528;21.204;2023-03-01T07:50:58;43.30;;;20.75;;
22282;SDS011;11310;51.528;21.204;2023-03-01T07:53:26;44.05;;;19.80;;
22282;SDS011;11310;51.528;21.204;2023-03-01T07:56:02;41.30;;;20.15;;
22282;SDS011;11310;51.528;21.204;2023-03-01T07:58:33;45.30;;;18.75;;
22282;SDS011;11310;51.528;21.204;2023-03-01T08:01:04;46.40;;;18.15;;
22282;SDS011;11310;51.528;21.204;2023-03-01T08:03:33;37.95;;;17.73;;
22282;SDS011;11310;51.528;21.204;2023-03-01T08:06:03;42.88;;;17.48;;
22282;SDS011;11310;51.528;21.204;2023-03-01T08:08:34;44.13;;;16.53;;
22282;SDS011;11310;51.528;21.204;2023-03-01T08:11:03;38.05;;;16.67;;
22282;SDS011;11310;51.528;21.204;2023-03-01T08:13:34;37.92;;;16.35;;
22282;SDS011;11310;51.528;21.204;2023-03-01T08:16:04;40.30;;;17.33;;
22282;SDS011;11310;51.528;21.204;2023-03-01T08:18:35;41.10;;;15.23;;
22282;SDS011;11310;51.528;21.204;2023-03-01T08:21:05;39.15;;;15.27;;
22282;SDS011;11310;51.528;21.204;2023-03-01T08:23:35;39.13;;;16.02;;
22282;SDS011;11310;51.528;21.204;2023-03-01T08:26:05;41.53;;;15.90;;
22282;SDS011;11310;51.528;21.204;2023-03-01T08:28:35;34.20;;;14.33;;
22282;SDS011;11310;51.528;21.204;2023-03-01T08:31:16;37.30;;;14.13;;
22282;SDS011;11310;51.528;21.204;2023-03-01T08:33:48;30.90;;;13.80;;
22282;SDS011;11310;51.528;21.204;2023-03-01T08:36:22;34.03;;;14.18;;
22282;SDS011;11310;51.528;21.204;2023-03-01T08:38:51;34.00;;;14.52;;
22282;SDS011;11310;51.528;21.204;2023-03-01T08:41:21;31.45;;;13.05;;
22282;SDS011;11310;51.528;21.204;2023-03-01T08:43:50;31.42;;;14.00;;
22282;SDS011;11310;51.528;21.204;2023-03-01T08:46:21;36.50;;;14.82;;
22282;SDS011;11310;51.528;21.204;2023-03-01T08:48:50;36.53;;;14.43;;
22282;SDS011;11310;51.528;21.204;2023-03-01T08:51:19;32.30;;;13.52;;
22282;SDS011;11310;51.528;21.204;2023-03-01T08:53:48;35.05;;;13.88;;
22282;SDS011;11310;51.528;21.204;2023-03-01T08:56:17;30.58;;;12.95;;
22282;SDS011;11310;51.528;21.204;2023-03-01T08:58:47;30.63;;;12.80;;
22282;SDS011;11310;51.528;21.204;2023-03-01T09:01:18;34.72;;;16.88;;
22282;SDS011;11310;51.528;21.204;2023-03-01T09:03:49;148.48;;;26.10;;
22282;SDS011;11310;51.528;21.204;2023-03-01T09:06:18;104.85;;;23.15;;
22282;SDS011;11310;51.528;21.204;2023-03-01T09:08:47;81.60;;;25.52;;
22282;SDS011;11310;51.528;21.204;2023-03-01T09:11:18;33.47;;;14.57;;
22282;SDS011;11310;51.528;21.204;2023-03-01T09:13:49;27.88;;;15.00;;
22282;SDS011;11310;51.528;21.204;2023-03-01T09:16:18;29.50;;;15.10;;
22282;SDS011;11310;51.528;21.204;2023-03-01T09:18:50;31.08;;;15.02;;
22282;SDS011;11310;51.528;21.204;2023-03-01T09:21:20;29.30;;;13.13;;
22282;SDS011;11310;51.528;21.204;2023-03-01T09:24:06;27.58;;;12.15;;
22282;SDS011;11310;51.528;21.204;2023-03-01T09:26:39;22.70;;;11.23;;
22282;SDS011;11310;51.528;21.204;2023-03-01T09:29:08;21.15;;;10.63;;
22282;SDS011;11310;51.528;21.204;2023-03-01T09:31:37;28.17;;;15.60;;
22282;SDS011;11310;51.528;21.204;2023-03-01T09:34:08;24.75;;;11.40;;
22282;SDS011;11310;51.528;21.204;2023-03-01T09:36:37;21.90;;;10.50;;
22282;SDS011;11310;51.528;21.204;2023-03-01T09:39:06;26.15;;;11.20;;
22282;SDS011;11310;51.528;21.204;2023-03-01T09:41:42;19.90;;;9.13;;
22282;SDS011;11310;51.528;21.204;2023-03-01T09:44:30;20.58;;;9.40;;
22282;SDS011;11310;51.528;21.204;2023-03-01T09:47:03;24.08;;;9.38;;
22282;SDS011;11310;51.528;21.204;2023-03-01T09:49:33;22.70;;;9.65;;
22282;SDS011;11310;51.528;21.204;2023-03-01T09:52:10;24.30;;;11.75;;
22282;SDS011;11310;51.528;21.204;2023-03-01T09:54:48;29.05;;;15.63;;
22282;SDS011;11310;51.528;21.204;2023-03-01T09:57:24;27.27;;;11.95;;
22282;SDS011;11310;51.528;21.204;2023-03-01T09:59:59;37.28;;;15.20;;
22282;SDS011;11310;51.528;21.204;2023-03-01T10:02:38;30.95;;;15.32;;
22282;SDS011;11310;51.528;21.204;2023-03-01T10:05:19;67.18;;;21.55;;
22282;SDS011;11310;51.528;21.204;2023-03-01T10:08:02;33.35;;;13.00;;
22282;SDS011;11310;51.528;21.204;2023-03-01T10:10:43;38.65;;;16.27;;
22282;SDS011;11310;51.528;21.204;2023-03-01T10:15:47;68.65;;;17.63;;
22282;SDS011;11310;51.528;21.204;2023-03-01T10:18:22;40.25;;;14.50;;
22282;SDS011;11310;51.528;21.204;2023-03-01T10:23:25;48.03;;;14.70;;
22282;SDS011;11310;51.528;21.204;2023-03-01T10:26:00;35.67;;;14.13;;
22282;SDS011;11310;51.528;21.204;2023-03-01T10:28:40;53.15;;;19.90;;
22282;SDS011;11310;51.528;21.204;2023-03-01T10:31:18;72.03;;;14.80;;
22282;SDS011;11310;51.528;21.204;2023-03-01T10:33:55;22.90;;;11.35;;
22282;SDS011;11310;51.528;21.204;2023-03-01T10:36:28;24.00;;;11.25;;
22282;SDS011;11310;51.528;21.204;2023-03-01T10:39:01;32.92;;;13.60;;
22282;SDS011;11310;51.528;21.204;2023-03-01T10:41:45;37.25;;;16.05;;
22282;SDS011;11310;51.528;21.204;2023-03-01T10:44:35;29.15;;;12.45;;
22282;SDS011;11310;51.528;21.204;2023-03-01T10:47:13;45.35;;;12.90;;
22282;SDS011;11310;51.528;21.204;2023-03-01T10:49:55;25.27;;;14.00;;
22282;SDS011;11310;51.528;21.204;2023-03-01T10:52:28;33.77;;;12.13;;
22282;SDS011;11310;51.528;21.204;2023-03-01T10:55:00;18.48;;;9.15;;
22282;SDS011;11310;51.528;21.204;2023-03-01T10:57:34;21.00;;;9.57;;
22282;SDS011;11310;51.528;21.204;2023-03-01T11:00:18;21.98;;;11.52;;
22282;SDS011;11310;51.528;21.204;2023-03-01T11:05:29;18.58;;;8.57;;
22282;SDS011;11310;51.528;21.204;2023-03-01T11:08:02;18.43;;;8.20;;
22282;SDS011;11310;51.528;21.204;2023-03-01T11:10:32;26.85;;;15.90;;
22282;SDS011;11310;51.528;21.204;2023-03-01T11:13:06;19.65;;;10.40;;
22282;SDS011;11310;51.528;21.204;2023-03-01T11:15:36;26.15;;;13.85;;
22282;SDS011;11310;51.528;21.204;2023-03-01T11:18:06;25.05;;;12.02;;
22282;SDS011;11310;51.528;21.204;2023-03-01T11:20:56;16.70;;;8.60;;
22282;SDS011;11310;51.528;21.204;2023-03-01T11:23:29;34.30;;;16.63;;
22282;SDS011;11310;51.528;21.204;2023-03-01T11:26:01;19.23;;;9.35;;
22282;SDS011;11310;51.528;21.204;2023-03-01T11:28:33;28.52;;;12.48;;
22282;SDS011;11310;51.528;21.204;2023-03-01T11:31:06;17.17;;;8.55;;
22282;SDS011;11310;51.528;21.204;2023-03-01T11:33:40;41.33;;;16.33;;
22282;SDS011;11310;51.528;21.204;2023-03-01T11:36:16;18.17;;;9.02;;
22282;SDS011;11310;51.528;21.204;2023-03-01T11:38:53;22.30;;;10.10;;
22282;SDS011;11310;51.528;21.204;2023-03-01T11:41:23;20.15;;;10.32;;
22282;SDS011;11310;51.528;21.204;2023-03-01T11:43:55;18.08;;;9.15;;
22282;SDS011;11310;51.528;21.204;2023-03-01T11:49:40;20.15;;;9.95;;
22282;SDS011;11310;51.528;21.204;2023-03-01T11:52:21;19.05;;;9.75;;
22282;SDS011;11310;51.528;21.204;2023-03-01T11:55:02;19.98;;;9.70;;
22282;SDS011;11310;51.528;21.204;2023-03-01T11:57:48;20.25;;;9.90;;
22282;SDS011;11310;51.528;21.204;2023-03-01T12:00:37;19.13;;;9.52;;
22282;SDS011;11310;51.528;21.204;2023-03-01T12:09:15;18.58;;;9.48;;
22282;SDS011;11310;51.528;21.204;2023-03-01T12:11:56;18.85;;;9.35;;
22282;SDS011;11310;51.528;21.204;2023-03-01T12:14:40;18.63;;;8.38;;
22282;SDS011;11310;51.528;21.204;2023-03-01T12:17:29;18.90;;;9.45;;
22282;SDS011;11310;51.528;21.204;2023-03-01T12:20:11;19.80;;;11.20;;
22282;SDS011;11310;51.528;21.204;2023-03-01T12:22:49;20.63;;;11.95;;
22282;SDS011;11310;51.528;21.204;2023-03-01T12:25:46;18.38;;;9.50;;
22282;SDS011;11310;51.528;21.204;2023-03-01T12:28:33;29.98;;;14.32;;
22282;SDS011;11310;51.528;21.204;2023-03-01T12:34:08;34.38;;;12.30;;
22282;SDS011;11310;51.528;21.204;2023-03-01T12:36:54;54.60;;;15.80;;
22282;SDS011;11310;51.528;21.204;2023-03-01T12:39:36;75.88;;;14.90;;
22282;SDS011;11310;51.528;21.204;2023-03-01T12:42:19;38.45;;;12.80;;
22282;SDS011;11310;51.528;21.204;2023-03-01T12:45:12;45.78;;;14.68;;
22282;SDS011;11310;51.528;21.204;2023-03-01T12:47:58;31.70;;;11.02;;
22282;SDS011;11310;51.528;21.204;2023-03-01T12:50:42;64.65;;;16.85;;
22282;SDS011;11310;51.528;21.204;2023-03-01T12:53:19;70.45;;;17.10;;
22282;SDS011;11310;51.528;21.204;2023-03-01T12:55:53;38.00;;;12.00;;
22282;SDS011;11310;51.528;21.204;2023-03-01T13:01:21;40.33;;;11.77;;
22282;SDS011;11310;51.528;21.204;2023-03-01T13:04:12;53.17;;;14.85;;
22282;SDS011;11310;51.528;21.204;2023-03-01T13:06:55;53.42;;;14.40;;
22282;SDS011;11310;51.528;21.204;2023-03-01T13:09:36;81.63;;;18.98;;
22282;SDS011;11310;51.528;21.204;2023-03-01T13:15:25;46.03;;;12.43;;
22282;SDS011;11310;51.528;21.204;2023-03-01T13:17:57;32.83;;;10.43;;
22282;SDS011;11310;51.528;21.204;2023-03-01T13:20:30;36.30;;;10.93;;
22282;SDS011;11310;51.528;21.204;2023-03-01T13:23:03;38.30;;;10.90;;
22282;SDS011;11310;51.528;21.204;2023-03-01T13:25:35;99.68;;;22.63;;
22282;SDS011;11310;51.528;21.204;2023-03-01T13:28:54;89.50;;;17.83;;
22282;SDS011;11310;51.528;21.204;2023-03-01T13:34:45;49.45;;;11.93;;
22282;SDS011;11310;51.528;21.204;2023-03-01T13:43:22;49.70;;;12.45;;
22282;SDS011;11310;51.528;21.204;2023-03-01T13:45:57;50.88;;;12.70;;
22282;SDS011;11310;51.528;21.204;2023-03-01T13:48:28;33.75;;;9.77;;
22282;SDS011;11310;51.528;21.204;2023-03-01T13:51:00;63.15;;;17.02;;
22282;SDS011;11310;51.528;21.204;2023-03-01T13:53:33;37.90;;;11.38;;
22282;SDS011;11310;51.528;21.204;2023-03-01T13:56:07;35.47;;;11.27;;
22282;SDS011;11310;51.528;21.204;2023-03-01T14:01:26;11.23;;;5.90;;
22282;SDS011;11310;51.528;21.204;2023-03-01T14:03:57;11.05;;;5.60;;
22282;SDS011;11310;51.528;21.204;2023-03-01T14:06:28;11.65;;;5.10;;
22282;SDS011;11310;51.528;21.204;2023-03-01T14:09:03;11.30;;;5.32;;
22282;SDS011;11310;51.528;21.204;2023-03-01T14:11:49;11.55;;;5.55;;
22282;SDS011;11310;51.528;21.204;2023-03-01T14:17:24;12.15;;;5.43;;
22282;SDS011;11310;51.528;21.204;2023-03-01T14:20:12;14.43;;;7.53;;
22282;SDS011;11310;51.528;21.204;2023-03-01T14:22:45;15.13;;;7.97;;
22282;SDS011;11310;51.528;21.204;2023-03-01T14:25:23;14.35;;;7.03;;
22282;SDS011;11310;51.528;21.204;2023-03-01T14:27:55;18.83;;;9.10;;
22282;SDS011;11310;51.528;21.204;2023-03-01T14:30:43;19.58;;;10.75;;
22282;SDS011;11310;51.528;21.204;2023-03-01T14:33:20;23.20;;;12.20;;
22282;SDS011;11310;51.528;21.204;2023-03-01T14:35:57;16.40;;;8.68;;
22282;SDS011;11310;51.528;21.204;2023-03-01T14:38:33;14.07;;;7.65;;
22282;SDS011;11310;51.528;21.204;2023-03-01T14:41:06;17.80;;;8.45;;
22282;SDS011;11310;51.528;21.204;2023-03-01T14:43:38;19.38;;;9.50;;
22282;SDS011;11310;51.528;21.204;2023-03-01T14:48:47;18.00;;;8.95;;
22282;SDS011;11310;51.528;21.204;2023-03-01T14:51:18;17.23;;;7.35;;
22282;SDS011;11310;51.528;21.204;2023-03-01T14:53:49;21.10;;;9.88;;
22282;SDS011;11310;51.528;21.204;2023-03-01T14:56:19;25.10;;;8.85;;
22282;SDS011;11310;51.528;21.204;2023-03-01T14:58:50;36.63;;;13.35;;
22282;SDS011;11310;51.528;21.204;2023-03-01T15:01:21;27.42;;;8.23;;
22282;SDS011;11310;51.528;21.204;2023-03-01T15:03:50;56.80;;;12.38;;
22282;SDS011;11310;51.528;21.204;2023-03-01T15:06:20;42.97;;;9.73;;
22282;SDS011;11310;51.528;21.204;2023-03-01T15:08:53;202.25;;;42.08;;
22282;SDS011;11310;51.528;21.204;2023-03-01T15:11:25;149.93;;;46.90;;
22282;SDS011;11310;51.528;21.204;2023-03-01T15:13:56;44.92;;;13.15;;
22282;SDS011;11310;51.528;21.204;2023-03-01T15:16:26;22.77;;;8.00;;
22282;SDS011;11310;51.528;21.204;2023-03-01T15:18:58;60.35;;;16.00;;
22282;SDS011;11310;51.528;21.204;2023-03-01T15:21:29;27.23;;;9.77;;
22282;SDS011;11310;51.528;21.204;2023-03-01T15:24:02;65.07;;;16.90;;
22282;SDS011;11310;51.528;21.204;2023-03-01T15:26:41;61.63;;;16.58;;